createdAt,value
2022-11-03T00:00:00.503Z,13.50
2022-11-03T00:01:01.515Z,17.10
2022-11-03T00:02:00.617Z,26.90
2022-11-03T00:03:00.640Z,14.60
2022-11-03T00:04:00.493Z,12.20
2022-11-03T00:05:00.487Z,15.40
2022-11-03T00:06:00.484Z,17.80
2022-11-03T00:07:00.477Z,24.00
2022-11-03T00:08:00.563Z,20.00
2022-11-03T00:09:00.464Z,14.90
2022-11-03T00:10:00.455Z,18.10
2022-11-03T00:11:00.435Z,13.10
2022-11-03T00:12:00.428Z,13.80
2022-11-03T00:13:00.496Z,12.90
2022-11-03T00:14:00.422Z,20.30
2022-11-03T00:15:00.434Z,13.60
2022-11-03T00:16:00.402Z,11.90
2022-11-03T00:17:00.426Z,15.80
2022-11-03T00:18:00.431Z,9.50
2022-11-03T00:19:00.402Z,10.40
2022-11-03T00:20:00.405Z,19.00
2022-11-03T00:21:00.386Z,13.00
2022-11-03T00:22:00.391Z,10.90
2022-11-03T00:23:00.394Z,12.60
2022-11-03T00:24:00.366Z,12.80
2022-11-03T00:25:00.372Z,11.70
2022-11-03T00:26:00.347Z,15.80
2022-11-03T00:27:00.353Z,13.90
2022-11-03T00:28:00.406Z,19.20
2022-11-03T00:29:00.343Z,15.00
2022-11-03T00:30:00.357Z,11.40
2022-11-03T00:31:00.338Z,12.70
2022-11-03T00:32:00.322Z,11.80
2022-11-03T00:33:00.344Z,13.00
2022-11-03T00:34:00.309Z,14.20
2022-11-03T00:35:00.315Z,11.20
2022-11-03T00:36:00.322Z,12.90
2022-11-03T00:37:00.321Z,12.50
2022-11-03T00:38:00.286Z,14.50
2022-11-03T00:39:00.290Z,15.40
2022-11-03T00:40:00.269Z,14.70
2022-11-03T00:41:00.270Z,11.00
2022-11-03T00:42:00.243Z,13.10
2022-11-03T00:43:00.263Z,14.90
2022-11-03T00:44:00.251Z,13.90
2022-11-03T00:45:33.657Z,13.50
2022-11-03T00:46:00.226Z,15.70
2022-11-03T00:47:00.234Z,12.70
2022-11-03T00:48:00.246Z,13.00
2022-11-03T00:49:00.232Z,10.50
2022-11-03T00:50:00.211Z,11.60
2022-11-03T00:51:00.210Z,11.30
2022-11-03T00:52:00.190Z,12.90
2022-11-03T00:53:00.174Z,14.80
2022-11-03T00:54:00.196Z,13.50
2022-11-03T00:55:00.176Z,11.70
2022-11-03T00:56:00.162Z,10.10
2022-11-03T00:57:00.190Z,11.70
2022-11-03T00:58:00.156Z,12.00
2022-11-03T00:59:00.171Z,11.50
2022-11-03T01:00:00.158Z,10.20
2022-11-03T01:01:00.235Z,12.60
2022-11-03T01:02:00.290Z,10.90
2022-11-03T01:03:00.140Z,12.30
2022-11-03T01:04:00.120Z,14.50
2022-11-03T01:05:00.132Z,13.90
2022-11-03T01:06:00.106Z,12.30
2022-11-03T01:07:00.126Z,11.60
2022-11-03T01:09:01.088Z,10.80
2022-11-03T01:10:00.099Z,14.30
2022-11-03T01:11:00.088Z,15.60
2022-11-03T01:12:00.087Z,10.60
2022-11-03T01:13:00.071Z,11.90
2022-11-03T01:14:00.093Z,11.50
2022-11-03T01:15:00.048Z,9.80
2022-11-03T01:16:00.050Z,10.00
2022-11-03T01:17:00.081Z,11.00
2022-11-03T01:18:00.037Z,10.80
2022-11-03T01:19:00.036Z,10.90
2022-11-03T01:20:00.035Z,12.40
2022-11-03T01:21:00.020Z,11.00
2022-11-03T01:22:00.016Z,13.10
2022-11-03T01:23:00.028Z,10.90
2022-11-03T01:24:00.003Z,11.30
2022-11-03T01:24:59.992Z,12.80
2022-11-03T01:25:59.996Z,10.90
2022-11-03T01:27:00.016Z,10.60
2022-11-03T01:28:00.068Z,10.50
2022-11-03T01:28:59.984Z,11.60
2022-11-03T01:29:59.959Z,12.10
2022-11-03T01:30:59.957Z,10.00
2022-11-03T01:31:59.970Z,12.80
2022-11-03T01:32:59.952Z,10.60
2022-11-03T01:33:59.935Z,11.30
2022-11-03T01:34:59.943Z,10.40
2022-11-03T01:35:59.914Z,12.90
2022-11-03T01:36:59.915Z,11.70
2022-11-03T01:37:59.946Z,12.50
2022-11-03T01:38:59.891Z,11.90
2022-11-03T01:39:59.892Z,10.70
2022-11-03T01:40:59.899Z,9.90
2022-11-03T01:41:59.875Z,10.30
2022-11-03T01:43:00.891Z,12.70
2022-11-03T01:43:59.898Z,10.80
2022-11-03T01:44:59.858Z,13.60
2022-11-03T01:45:59.849Z,12.60
2022-11-03T01:46:59.855Z,10.90
2022-11-03T01:47:59.864Z,12.10
2022-11-03T01:48:59.855Z,11.20
2022-11-03T01:49:59.834Z,12.50
2022-11-03T01:50:59.823Z,13.80
2022-11-03T01:51:59.814Z,12.50
2022-11-03T01:52:59.814Z,13.10
2022-11-03T01:53:59.823Z,13.80
2022-11-03T01:54:59.808Z,11.50
2022-11-03T01:55:59.799Z,12.20
2022-11-03T01:56:59.783Z,15.20
2022-11-03T01:57:59.780Z,16.50
2022-11-03T01:58:59.776Z,12.00
2022-11-03T01:59:59.773Z,14.40
2022-11-03T02:00:59.843Z,12.30
2022-11-03T02:01:59.866Z,12.20
2022-11-03T02:02:59.749Z,12.30
2022-11-03T02:03:59.745Z,10.50
2022-11-03T02:04:59.796Z,13.00
2022-11-03T02:05:59.737Z,12.60
2022-11-03T02:06:59.717Z,12.30
2022-11-03T02:08:18.634Z,9.90
2022-11-03T02:08:59.720Z,11.90
2022-11-03T02:09:59.722Z,11.80
2022-11-03T02:10:59.690Z,13.20
2022-11-03T02:11:59.701Z,13.20
2022-11-03T02:12:59.685Z,12.50
2022-11-03T02:13:59.677Z,13.00
2022-11-03T02:14:59.705Z,11.90
2022-11-03T02:15:59.661Z,15.90
2022-11-03T02:16:59.662Z,14.00
2022-11-03T02:17:59.690Z,12.00
2022-11-03T02:18:59.641Z,13.40
2022-11-03T02:19:59.644Z,12.20
2022-11-03T02:20:59.726Z,14.50
2022-11-03T02:21:59.632Z,10.20
2022-11-03T02:22:59.624Z,15.60
2022-11-03T02:23:59.602Z,10.50
2022-11-03T02:24:59.613Z,16.90
2022-11-03T02:25:59.594Z,12.60
2022-11-03T02:26:59.628Z,11.80
2022-11-03T02:27:59.580Z,13.00
2022-11-03T02:28:59.595Z,12.60
2022-11-03T02:29:59.593Z,11.10
2022-11-03T02:30:59.566Z,13.10
2022-11-03T02:31:59.551Z,11.00
2022-11-03T02:32:59.568Z,11.60
2022-11-03T02:33:59.545Z,13.50
2022-11-03T02:34:59.528Z,13.30
2022-11-03T02:35:59.540Z,11.00
2022-11-03T02:36:59.572Z,10.90
2022-11-03T02:37:59.552Z,14.90
2022-11-03T02:38:59.524Z,13.40
2022-11-03T02:39:59.505Z,11.60
2022-11-03T02:40:59.511Z,11.50
2022-11-03T02:41:59.487Z,14.80
2022-11-03T02:42:59.505Z,12.20
2022-11-03T02:43:59.504Z,12.90
2022-11-03T02:44:59.472Z,11.30
2022-11-03T02:45:59.479Z,10.80
2022-11-03T02:46:59.456Z,15.30
2022-11-03T02:47:59.443Z,10.40
2022-11-03T02:48:59.490Z,10.60
2022-11-03T02:49:59.443Z,12.10
2022-11-03T02:51:00.174Z,12.30
2022-11-03T02:51:59.440Z,15.80
2022-11-03T02:52:59.421Z,11.50
2022-11-03T02:53:59.413Z,12.40
2022-11-03T02:54:59.449Z,11.60
2022-11-03T02:55:59.392Z,11.50
2022-11-03T02:56:59.398Z,11.80
2022-11-03T02:57:59.405Z,12.10
2022-11-03T02:58:59.376Z,15.00
2022-11-03T02:59:59.377Z,14.80
2022-11-03T03:00:59.457Z,12.70
2022-11-03T03:01:59.487Z,16.20
2022-11-03T03:02:59.358Z,11.60
2022-11-03T03:03:59.360Z,12.50
2022-11-03T03:04:59.370Z,10.80
2022-11-03T03:05:59.326Z,11.60
2022-11-03T03:06:59.355Z,12.20
2022-11-03T03:07:59.339Z,11.00
2022-11-03T03:08:59.316Z,13.50
2022-11-03T03:09:59.329Z,11.20
2022-11-03T03:10:59.352Z,10.60
2022-11-03T03:11:59.312Z,12.60
2022-11-03T03:12:59.309Z,11.80
2022-11-03T03:13:59.296Z,11.80
2022-11-03T03:14:59.282Z,10.90
2022-11-03T03:15:59.288Z,13.60
2022-11-03T03:16:59.278Z,10.20
2022-11-03T03:17:59.260Z,17.20
2022-11-03T03:18:59.257Z,11.90
2022-11-03T03:19:59.286Z,13.60
2022-11-03T03:20:59.242Z,16.40
2022-11-03T03:21:59.235Z,13.80
2022-11-03T03:22:59.268Z,12.50
2022-11-03T03:23:59.242Z,13.00
2022-11-03T03:24:59.227Z,14.40
2022-11-03T03:25:59.209Z,11.40
2022-11-03T03:26:59.221Z,10.40
2022-11-03T03:27:59.211Z,11.10
2022-11-03T03:28:59.187Z,13.50
2022-11-03T03:29:59.200Z,13.40
2022-11-03T03:30:59.188Z,13.50
2022-11-03T03:31:59.179Z,13.30
2022-11-03T03:32:59.189Z,16.20
2022-11-03T03:34:04.522Z,13.40
2022-11-03T03:35:01.180Z,14.70
2022-11-03T03:35:59.144Z,16.60
2022-11-03T03:36:59.134Z,13.90
2022-11-03T03:37:59.165Z,13.70
2022-11-03T03:38:59.137Z,15.30
2022-11-03T03:39:59.115Z,16.80
2022-11-03T03:40:59.147Z,15.40
2022-11-03T03:41:59.129Z,13.60
2022-11-03T03:42:59.106Z,13.40
2022-11-03T03:43:59.101Z,13.80
2022-11-03T03:44:59.079Z,14.80
2022-11-03T03:45:59.099Z,14.40
2022-11-03T03:46:59.068Z,11.60
2022-11-03T03:47:59.065Z,13.40
2022-11-03T03:48:59.078Z,11.20
2022-11-03T03:49:59.048Z,13.80
2022-11-03T03:50:59.048Z,10.60
2022-11-03T03:51:59.057Z,11.00
2022-11-03T03:52:59.036Z,14.00
2022-11-03T03:53:59.051Z,13.30
2022-11-03T03:54:59.035Z,11.00
2022-11-03T03:55:59.031Z,14.90
2022-11-03T03:56:59.003Z,12.60
2022-11-03T03:58:00.454Z,12.20
2022-11-03T03:58:58.999Z,13.60
2022-11-03T03:59:58.999Z,12.20
2022-11-03T04:00:59.075Z,15.00
2022-11-03T04:01:59.175Z,12.20
2022-11-03T04:02:58.962Z,14.20
2022-11-03T04:03:58.966Z,13.90
2022-11-03T04:04:58.955Z,13.50
2022-11-03T04:05:58.976Z,15.30
2022-11-03T04:06:58.959Z,14.00
2022-11-03T04:07:58.941Z,13.70
2022-11-03T04:08:58.939Z,13.80
2022-11-03T04:09:58.939Z,12.30
2022-11-03T04:10:58.948Z,12.60
2022-11-03T04:11:58.907Z,11.70
2022-11-03T04:12:58.951Z,13.70
2022-11-03T04:13:58.905Z,13.80
2022-11-03T04:14:58.899Z,10.30
2022-11-03T04:15:58.915Z,11.00
2022-11-03T04:16:58.898Z,11.20
2022-11-03T04:17:58.880Z,11.20
2022-11-03T04:18:58.932Z,11.90
2022-11-03T04:19:58.865Z,10.80
2022-11-03T04:20:58.891Z,11.50
2022-11-03T04:21:58.881Z,10.80
2022-11-03T04:22:58.848Z,12.50
2022-11-03T04:23:58.839Z,11.60
2022-11-03T04:24:58.847Z,12.30
2022-11-03T04:25:58.830Z,11.20
2022-11-03T04:26:58.836Z,10.20
2022-11-03T04:27:58.822Z,14.00
2022-11-03T04:28:58.806Z,10.60
2022-11-03T04:29:58.791Z,13.80
2022-11-03T04:30:59.830Z,11.00
2022-11-03T04:31:58.802Z,15.60
2022-11-03T04:32:58.783Z,12.90
2022-11-03T04:33:58.814Z,10.10
2022-11-03T04:34:58.776Z,9.70
2022-11-03T04:35:58.775Z,9.50
2022-11-03T04:36:58.794Z,11.90
2022-11-03T04:37:58.754Z,15.90
2022-11-03T04:38:58.746Z,12.80
2022-11-03T04:39:58.754Z,10.80
2022-11-03T04:40:58.754Z,10.00
2022-11-03T04:41:58.742Z,9.40
2022-11-03T04:42:58.753Z,10.90
2022-11-03T04:43:58.720Z,10.50
2022-11-03T04:44:58.732Z,14.50
2022-11-03T04:45:58.694Z,12.10
2022-11-03T04:46:58.831Z,10.20
2022-11-03T04:47:58.716Z,11.10
2022-11-03T04:48:58.700Z,12.40
2022-11-03T04:49:58.706Z,11.50
2022-11-03T04:50:58.740Z,14.20
2022-11-03T04:51:58.697Z,10.60
2022-11-03T04:52:58.709Z,13.20
2022-11-03T04:53:58.679Z,12.80
2022-11-03T04:54:58.650Z,13.10
2022-11-03T04:56:01.521Z,12.10
2022-11-03T04:57:00.691Z,12.00
2022-11-03T04:57:58.634Z,13.80
2022-11-03T04:58:58.657Z,10.10
2022-11-03T04:59:58.637Z,11.40
2022-11-03T05:00:58.652Z,10.60
2022-11-03T05:01:58.782Z,14.90
2022-11-03T05:02:58.612Z,12.90
2022-11-03T05:03:58.619Z,16.60
2022-11-03T05:04:58.607Z,11.40
2022-11-03T05:05:58.583Z,11.80
2022-11-03T05:06:58.588Z,11.60
2022-11-03T05:07:58.609Z,10.00
2022-11-03T05:08:58.581Z,13.70
2022-11-03T05:09:58.554Z,12.90
2022-11-03T05:10:58.579Z,14.70
2022-11-03T05:11:58.543Z,14.90
2022-11-03T05:12:58.530Z,12.30
2022-11-03T05:13:58.612Z,12.40
2022-11-03T05:14:58.809Z,13.90
2022-11-03T05:15:58.546Z,12.60
2022-11-03T05:16:58.510Z,12.90
2022-11-03T05:17:59.511Z,11.60
2022-11-03T05:18:58.496Z,13.50
2022-11-03T05:19:58.528Z,10.30
2022-11-03T05:20:58.484Z,11.40
2022-11-03T05:21:58.482Z,13.80
2022-11-03T05:22:58.483Z,13.50
2022-11-03T05:23:58.494Z,15.70
2022-11-03T05:24:58.483Z,15.40
2022-11-03T05:25:58.451Z,15.70
2022-11-03T05:26:58.466Z,11.40
2022-11-03T05:27:58.450Z,11.70
2022-11-03T05:28:58.442Z,12.00
2022-11-03T05:30:00.758Z,13.30
2022-11-03T05:30:58.426Z,12.60
2022-11-03T05:31:58.426Z,16.70
2022-11-03T05:32:58.427Z,15.50
2022-11-03T05:33:58.417Z,13.20
2022-11-03T05:34:58.408Z,13.90
2022-11-03T05:35:58.417Z,13.50
2022-11-03T05:36:58.383Z,17.50
2022-11-03T05:37:58.382Z,11.70
2022-11-03T05:38:58.389Z,18.20
2022-11-03T05:39:58.402Z,21.90
2022-11-03T05:40:58.365Z,23.30
2022-11-03T05:41:58.369Z,36.90
2022-11-03T05:42:58.345Z,38.90
2022-11-03T05:43:58.350Z,27.90
2022-11-03T05:44:58.377Z,17.30
2022-11-03T05:45:58.410Z,13.40
2022-11-03T05:46:58.328Z,15.40
2022-11-03T05:47:58.335Z,16.00
2022-11-03T05:48:58.342Z,15.00
2022-11-03T05:49:58.313Z,13.30
2022-11-03T05:50:58.357Z,13.80
2022-11-03T05:51:58.291Z,18.70
2022-11-03T05:52:58.283Z,18.20
2022-11-03T05:53:58.301Z,18.80
2022-11-03T05:54:58.284Z,18.60
2022-11-03T05:55:58.284Z,19.00
2022-11-03T05:56:58.276Z,19.30
2022-11-03T05:57:58.247Z,14.10
2022-11-03T05:58:58.249Z,17.00
2022-11-03T05:59:58.260Z,18.50
2022-11-03T06:00:58.676Z,18.80
2022-11-03T06:01:58.428Z,20.00
2022-11-03T06:02:58.289Z,17.70
2022-11-03T06:03:58.259Z,18.40
2022-11-03T06:04:58.225Z,18.50
2022-11-03T06:05:58.204Z,21.60
2022-11-03T06:06:58.192Z,20.30
2022-11-03T06:07:58.208Z,14.40
2022-11-03T06:08:58.185Z,19.00
2022-11-03T06:09:58.197Z,17.80
2022-11-03T06:10:58.201Z,18.50
2022-11-03T06:11:58.154Z,18.20
2022-11-03T06:12:58.171Z,19.50
2022-11-03T06:13:58.144Z,16.40
2022-11-03T06:14:58.153Z,18.60
2022-11-03T06:15:58.154Z,19.80
2022-11-03T06:16:58.143Z,16.90
2022-11-03T06:17:58.122Z,17.80
2022-11-03T06:18:58.137Z,15.20
2022-11-03T06:19:58.108Z,17.10
2022-11-03T06:20:58.129Z,16.80
2022-11-03T06:21:58.193Z,16.30
2022-11-03T06:22:58.103Z,15.60
2022-11-03T06:23:58.099Z,17.30
2022-11-03T06:24:58.111Z,18.30
2022-11-03T06:25:58.055Z,16.80
2022-11-03T06:26:59.099Z,17.40
2022-11-03T06:27:58.051Z,15.50
2022-11-03T06:28:58.052Z,15.70
2022-11-03T06:29:58.075Z,16.00
2022-11-03T06:30:58.039Z,15.50
2022-11-03T06:31:58.031Z,17.90
2022-11-03T06:32:58.048Z,13.70
2022-11-03T06:33:58.016Z,14.00
2022-11-03T06:34:58.013Z,17.40
2022-11-03T06:35:58.027Z,15.80
2022-11-03T06:36:58.000Z,17.70
2022-11-03T06:37:58.015Z,16.80
2022-11-03T06:38:58.003Z,15.40
2022-11-03T06:39:57.975Z,14.90
2022-11-03T06:40:57.992Z,18.30
2022-11-03T06:41:58.057Z,17.00
2022-11-03T06:42:57.976Z,18.20
2022-11-03T06:43:57.959Z,16.70
2022-11-03T06:44:57.948Z,17.70
2022-11-03T06:45:57.943Z,18.30
2022-11-03T06:46:57.924Z,20.90
2022-11-03T06:47:57.948Z,16.40
2022-11-03T06:48:57.919Z,18.30
2022-11-03T06:49:57.908Z,16.00
2022-11-03T06:50:57.914Z,14.50
2022-11-03T06:51:57.892Z,14.60
2022-11-03T06:52:57.914Z,17.50
2022-11-03T06:53:57.928Z,15.40
2022-11-03T06:54:57.880Z,15.50
2022-11-03T06:55:57.872Z,17.80
2022-11-03T06:56:57.880Z,15.00
2022-11-03T06:57:57.884Z,14.80
2022-11-03T06:58:57.848Z,18.10
2022-11-03T07:00:13.440Z,14.80
2022-11-03T07:01:03.326Z,16.90
2022-11-03T07:01:58.932Z,18.30
2022-11-03T07:02:57.890Z,18.80
2022-11-03T07:03:57.848Z,20.10
2022-11-03T07:04:57.818Z,16.30
2022-11-03T07:05:57.817Z,15.70
2022-11-03T07:06:57.800Z,18.80
2022-11-03T07:07:57.797Z,19.60
2022-11-03T07:08:57.832Z,16.70
2022-11-03T07:09:57.769Z,16.30
2022-11-03T07:10:57.777Z,21.10
2022-11-03T07:11:57.786Z,19.20
2022-11-03T07:12:59.152Z,20.00
2022-11-03T07:13:57.792Z,16.90
2022-11-03T07:14:57.811Z,18.40
2022-11-03T07:15:57.743Z,18.30
2022-11-03T07:16:57.829Z,15.80
2022-11-03T07:17:57.750Z,16.00
2022-11-03T07:18:57.732Z,15.90
2022-11-03T07:19:57.708Z,19.00
2022-11-03T07:20:57.722Z,14.70
2022-11-03T07:21:57.711Z,17.90
2022-11-03T07:22:57.697Z,18.20
2022-11-03T07:23:57.741Z,18.30
2022-11-03T07:24:57.676Z,16.80
2022-11-03T07:25:57.661Z,15.30
2022-11-03T07:26:58.685Z,19.50
2022-11-03T07:27:57.661Z,16.70
2022-11-03T07:28:58.664Z,17.80
2022-11-03T07:29:57.673Z,15.90
2022-11-03T07:30:57.646Z,19.70
2022-11-03T07:31:57.635Z,20.20
2022-11-03T07:32:57.641Z,18.30
2022-11-03T07:33:57.625Z,20.20
2022-11-03T07:34:57.620Z,14.40
2022-11-03T07:36:59.739Z,17.50
2022-11-03T07:37:57.600Z,19.70
2022-11-03T07:38:57.625Z,20.50
2022-11-03T07:39:57.588Z,17.20
2022-11-03T07:40:57.583Z,20.70
2022-11-03T07:41:57.587Z,18.50
2022-11-03T07:42:57.572Z,19.50
2022-11-03T07:43:57.554Z,20.20
2022-11-03T07:44:57.580Z,21.40
2022-11-03T07:45:57.564Z,18.50
2022-11-03T07:46:57.532Z,19.70
2022-11-03T07:48:01.862Z,18.40
2022-11-03T07:48:59.578Z,16.80
2022-11-03T07:49:57.544Z,20.90
2022-11-03T07:50:57.528Z,17.50
2022-11-03T07:51:57.501Z,17.40
2022-11-03T07:52:57.487Z,14.20
2022-11-03T07:53:57.516Z,17.90
2022-11-03T07:54:57.511Z,20.00
2022-11-03T07:55:57.585Z,17.70
2022-11-03T07:56:57.502Z,17.90
2022-11-03T07:57:57.472Z,15.60
2022-11-03T07:58:57.470Z,19.30
2022-11-03T07:59:57.464Z,14.90
2022-11-03T08:00:57.471Z,14.00
2022-11-03T08:01:57.629Z,17.50
2022-11-03T08:02:57.454Z,15.10
2022-11-03T08:03:57.434Z,18.70
2022-11-03T08:04:57.422Z,20.00
2022-11-03T08:05:57.452Z,21.00
2022-11-03T08:06:57.446Z,21.70
2022-11-03T08:07:57.410Z,14.70
2022-11-03T08:08:57.404Z,16.30
2022-11-03T08:09:57.392Z,17.50
2022-11-03T08:10:57.391Z,22.20
2022-11-03T08:11:57.437Z,13.50
2022-11-03T08:12:58.279Z,19.40
2022-11-03T08:13:57.374Z,19.40
2022-11-03T08:14:57.367Z,19.80
2022-11-03T08:15:57.387Z,17.00
2022-11-03T08:16:57.373Z,15.90
2022-11-03T08:17:57.359Z,18.20
2022-11-03T08:18:57.362Z,17.20
2022-11-03T08:19:57.341Z,14.60
2022-11-03T08:20:57.332Z,13.90
2022-11-03T08:21:57.370Z,12.80
2022-11-03T08:23:24.133Z,17.00
2022-11-03T08:23:59.320Z,14.20
2022-11-03T08:24:57.334Z,14.60
2022-11-03T08:25:57.305Z,17.20
2022-11-03T08:26:57.288Z,19.00
2022-11-03T08:27:57.301Z,15.90
2022-11-03T08:28:57.280Z,17.50
2022-11-03T08:29:57.276Z,11.60
2022-11-03T08:31:00.875Z,17.40
2022-11-03T08:31:57.256Z,14.00
2022-11-03T08:32:57.276Z,16.10
2022-11-03T08:33:57.259Z,18.20
2022-11-03T08:34:57.297Z,12.30
2022-11-03T08:35:57.400Z,11.90
2022-11-03T08:36:57.228Z,11.20
2022-11-03T08:37:57.236Z,10.10
2022-11-03T08:38:57.276Z,13.10
2022-11-03T08:39:57.210Z,15.10
2022-11-03T08:40:57.211Z,13.70
2022-11-03T08:41:57.245Z,10.70
2022-11-03T08:42:57.231Z,11.00
2022-11-03T08:43:57.233Z,11.60
2022-11-03T08:44:57.188Z,10.30
2022-11-03T08:46:03.444Z,9.30
2022-11-03T08:46:59.185Z,13.30
2022-11-03T08:47:57.165Z,12.00
2022-11-03T08:48:57.185Z,9.20
2022-11-03T08:49:57.198Z,13.80
2022-11-03T08:50:57.136Z,11.70
2022-11-03T08:51:57.189Z,13.80
2022-11-03T08:52:57.130Z,10.60
2022-11-03T08:53:57.130Z,12.30
2022-11-03T08:55:58.103Z,13.30
2022-11-03T08:56:57.107Z,13.10
2022-11-03T08:57:57.205Z,12.00
2022-11-03T08:58:57.145Z,11.80
2022-11-03T08:59:57.097Z,13.90
2022-11-03T09:00:57.097Z,11.60
2022-11-03T09:01:57.144Z,11.10
2022-11-03T09:02:57.091Z,9.60
2022-11-03T09:03:57.096Z,10.70
2022-11-03T09:04:57.048Z,10.80
2022-11-03T09:05:57.066Z,12.20
2022-11-03T09:06:57.034Z,13.20
2022-11-03T09:10:59.047Z,12.50
2022-11-03T09:11:57.025Z,10.10
2022-11-03T09:12:57.013Z,10.90
2022-11-03T09:13:56.982Z,13.70
2022-11-03T09:14:56.991Z,14.40
2022-11-03T09:15:56.986Z,11.60
2022-11-03T09:16:56.992Z,11.20
2022-11-03T09:17:56.987Z,11.40
2022-11-03T09:18:56.949Z,11.80
2022-11-03T09:19:56.962Z,12.30
2022-11-03T09:20:56.954Z,15.70
2022-11-03T09:21:56.930Z,15.80
2022-11-03T09:22:56.921Z,12.90
2022-11-03T09:23:56.934Z,12.40
2022-11-03T09:24:56.919Z,13.80
2022-11-03T09:25:56.931Z,11.80
2022-11-03T09:27:01.119Z,12.10
2022-11-03T09:27:58.897Z,13.00
2022-11-03T09:28:56.893Z,14.00
2022-11-03T09:30:12.398Z,13.70
2022-11-03T09:30:58.903Z,12.60
2022-11-03T09:31:56.885Z,10.30
2022-11-03T09:32:56.877Z,14.50
2022-11-03T09:33:56.857Z,10.60
2022-11-03T09:34:56.852Z,17.40
2022-11-03T09:35:56.880Z,12.20
2022-11-03T09:36:56.856Z,15.10
2022-11-03T09:37:56.839Z,16.10
2022-11-03T09:38:56.860Z,11.80
2022-11-03T09:39:56.823Z,18.80
2022-11-03T09:40:56.823Z,14.90
2022-11-03T09:41:58.902Z,12.40
2022-11-03T09:42:57.830Z,12.00
2022-11-03T09:43:56.798Z,8.50
2022-11-03T09:44:56.805Z,10.10
2022-11-03T09:45:57.786Z,10.50
2022-11-03T09:46:58.447Z,17.20
2022-11-03T09:47:57.809Z,12.10
2022-11-03T09:48:56.754Z,11.80
2022-11-03T09:49:56.752Z,13.00
2022-11-03T09:50:56.749Z,11.80
2022-11-03T09:51:56.776Z,10.20
2022-11-03T09:52:56.745Z,11.70
2022-11-03T09:53:56.750Z,11.00
2022-11-03T09:54:56.721Z,10.10
2022-11-03T09:55:56.712Z,6.50
2022-11-03T09:56:56.717Z,9.00
2022-11-03T09:57:56.716Z,11.70
2022-11-03T09:58:56.736Z,9.80
2022-11-03T09:59:56.774Z,8.80
2022-11-03T10:00:56.737Z,10.20
2022-11-03T10:01:56.778Z,9.00
2022-11-03T10:02:56.683Z,11.10
2022-11-03T10:03:56.683Z,10.80
2022-11-03T10:04:56.705Z,8.60
2022-11-03T10:05:56.657Z,10.90
2022-11-03T10:06:56.652Z,11.50
2022-11-03T10:07:56.635Z,10.30
2022-11-03T10:08:56.637Z,9.50
2022-11-03T10:09:56.632Z,11.60
2022-11-03T10:10:56.628Z,9.40
2022-11-03T10:11:56.766Z,10.90
2022-11-03T10:12:56.595Z,12.60
2022-11-03T10:13:56.596Z,14.40
2022-11-03T10:14:56.591Z,14.90
2022-11-03T10:15:56.605Z,19.30
2022-11-03T10:16:56.581Z,14.20
2022-11-03T10:17:56.606Z,13.10
2022-11-03T10:18:56.560Z,16.20
2022-11-03T10:19:56.583Z,27.80
2022-11-03T10:20:56.569Z,25.10
2022-11-03T10:21:56.548Z,22.20
2022-11-03T10:22:56.547Z,20.60
2022-11-03T10:23:56.532Z,19.60
2022-11-03T10:24:56.523Z,16.20
2022-11-03T10:25:56.531Z,31.90
2022-11-03T10:26:56.532Z,23.50
2022-11-03T10:27:56.545Z,29.20
2022-11-03T10:28:56.500Z,22.80
2022-11-03T10:29:57.974Z,24.10
2022-11-03T10:31:12.928Z,15.30
2022-11-03T10:31:58.487Z,10.90
2022-11-03T10:32:56.506Z,11.90
2022-11-03T10:33:56.511Z,10.30
2022-11-03T10:34:56.457Z,12.20
2022-11-03T10:35:56.492Z,9.30
2022-11-03T10:36:56.461Z,7.80
2022-11-03T10:37:56.444Z,10.30
2022-11-03T10:38:56.463Z,8.70
2022-11-03T10:39:56.461Z,7.50
2022-11-03T10:40:56.404Z,8.50
2022-11-03T10:41:56.424Z,8.00
2022-11-03T10:42:56.428Z,5.30
2022-11-03T10:43:56.421Z,6.70
2022-11-03T10:44:56.420Z,9.60
2022-11-03T10:45:56.388Z,8.00
2022-11-03T10:46:56.386Z,11.20
2022-11-03T10:48:00.571Z,11.30
2022-11-03T10:48:57.508Z,7.90
2022-11-03T10:49:56.584Z,11.00
2022-11-03T10:50:56.477Z,9.20
2022-11-03T10:51:56.777Z,7.80
2022-11-03T10:52:56.588Z,9.80
2022-11-03T10:53:56.440Z,12.70
2022-11-03T10:54:56.493Z,12.20
2022-11-03T10:55:56.376Z,9.80
2022-11-03T10:56:56.409Z,11.30
2022-11-03T10:57:56.425Z,14.50
2022-11-03T10:58:56.404Z,11.60
2022-11-03T10:59:56.457Z,8.00
2022-11-03T11:00:56.579Z,11.50
2022-11-03T11:01:56.584Z,11.60
2022-11-03T11:02:56.313Z,10.00
2022-11-03T11:03:56.556Z,8.60
2022-11-03T11:04:56.368Z,8.60
2022-11-03T11:06:29.789Z,8.20
2022-11-03T11:06:56.335Z,7.70
2022-11-03T11:07:56.539Z,8.60
2022-11-03T11:08:59.971Z,12.30
2022-11-03T11:09:57.318Z,10.60
2022-11-03T11:10:56.223Z,8.80
2022-11-03T11:11:56.390Z,9.70
2022-11-03T11:12:56.347Z,10.30
2022-11-03T11:13:56.394Z,7.90
2022-11-03T11:14:56.454Z,10.70
2022-11-03T11:15:56.222Z,11.50
2022-11-03T11:16:56.204Z,11.50
2022-11-03T11:17:56.198Z,9.60
2022-11-03T11:18:56.222Z,9.90
2022-11-03T11:19:56.206Z,9.40
2022-11-03T11:20:56.184Z,12.00
2022-11-03T11:21:56.290Z,10.60
2022-11-03T11:22:56.208Z,12.70
2022-11-03T11:23:57.173Z,8.60
2022-11-03T11:24:56.144Z,7.60
2022-11-03T11:25:56.290Z,9.80
2022-11-03T11:26:56.189Z,11.60
2022-11-03T11:27:58.216Z,7.80
2022-11-03T11:28:56.254Z,12.00
2022-11-03T11:29:56.140Z,10.00
2022-11-03T11:30:56.112Z,8.30
2022-11-03T11:31:56.166Z,9.50
2022-11-03T11:32:56.169Z,10.70
2022-11-03T11:33:56.159Z,10.80
2022-11-03T11:34:56.197Z,9.10
2022-11-03T11:35:59.024Z,8.20
2022-11-03T11:37:32.050Z,9.20
2022-11-03T11:37:56.118Z,9.20
2022-11-03T11:38:56.237Z,6.80
2022-11-03T11:39:56.150Z,7.40
2022-11-03T11:40:56.148Z,8.30
2022-11-03T11:41:56.165Z,6.60
2022-11-03T11:42:56.077Z,8.60
2022-11-03T11:43:56.114Z,7.70
2022-11-03T11:44:56.159Z,9.20
2022-11-03T11:45:56.056Z,6.60
2022-11-03T11:46:56.095Z,9.30
2022-11-03T11:47:56.042Z,7.70
2022-11-03T11:48:56.114Z,7.60
2022-11-03T11:49:56.042Z,7.50
2022-11-03T11:50:56.050Z,8.60
2022-11-03T11:51:56.023Z,8.60
2022-11-03T11:52:56.108Z,10.60
2022-11-03T11:54:16.768Z,11.70
2022-11-03T11:54:58.019Z,7.40
2022-11-03T11:55:55.946Z,12.40
2022-11-03T11:56:56.104Z,8.40
2022-11-03T11:57:57.270Z,8.60
2022-11-03T11:58:56.054Z,9.10
2022-11-03T11:59:55.945Z,8.20
2022-11-03T12:01:32.986Z,5.70
2022-11-03T12:01:56.008Z,7.40
2022-11-03T12:02:55.937Z,7.60
2022-11-03T12:03:56.128Z,11.30
2022-11-03T12:04:55.990Z,7.30
2022-11-03T12:05:55.917Z,8.60
2022-11-03T12:06:55.996Z,7.60
2022-11-03T12:07:55.841Z,7.20
2022-11-03T12:08:55.871Z,10.30
2022-11-03T12:09:55.865Z,6.00
2022-11-03T12:10:55.924Z,9.30
2022-11-03T12:11:56.375Z,6.70
2022-11-03T12:12:55.809Z,8.40
2022-11-03T12:13:55.866Z,7.90
2022-11-03T12:14:55.790Z,6.10
2022-11-03T12:15:55.792Z,8.30
2022-11-03T12:16:55.812Z,6.20
2022-11-03T12:17:55.778Z,8.10
2022-11-03T12:18:55.768Z,9.50
2022-11-03T12:19:55.815Z,10.70
2022-11-03T12:20:55.744Z,8.50
2022-11-03T12:21:55.756Z,7.40
2022-11-03T12:22:56.736Z,8.40
2022-11-03T12:23:55.819Z,7.90
2022-11-03T12:24:55.744Z,8.90
2022-11-03T12:25:55.724Z,9.00
2022-11-03T12:26:55.740Z,8.50
2022-11-03T12:27:55.741Z,7.50
2022-11-03T12:28:55.720Z,6.40
2022-11-03T12:29:55.734Z,7.90
2022-11-03T12:30:55.787Z,9.20
2022-11-03T12:31:55.677Z,7.90
2022-11-03T12:32:55.831Z,6.00
2022-11-03T12:33:55.848Z,9.40
2022-11-03T12:34:55.766Z,10.40
2022-11-03T12:35:55.726Z,9.50
2022-11-03T12:36:56.472Z,13.00
2022-11-03T12:37:56.660Z,9.20
2022-11-03T12:38:55.664Z,15.30
2022-11-03T12:39:55.618Z,12.20
2022-11-03T12:40:55.631Z,11.80
2022-11-03T12:41:55.612Z,12.00
2022-11-03T12:42:55.732Z,10.20
2022-11-03T12:43:55.711Z,8.90
2022-11-03T12:44:55.625Z,7.40
2022-11-03T12:45:55.801Z,6.90
2022-11-03T12:46:55.693Z,7.50
2022-11-03T12:47:55.663Z,7.10
2022-11-03T12:48:55.599Z,10.70
2022-11-03T12:49:55.659Z,6.60
2022-11-03T12:50:55.689Z,7.30
2022-11-03T12:51:55.840Z,7.30
2022-11-03T12:52:55.591Z,7.50
2022-11-03T12:53:55.542Z,7.30
2022-11-03T12:54:55.566Z,7.60
2022-11-03T12:55:55.615Z,7.30
2022-11-03T12:56:55.536Z,7.50
2022-11-03T12:57:55.530Z,8.20
2022-11-03T12:58:55.629Z,7.20
2022-11-03T12:59:55.561Z,7.00
2022-11-03T13:01:01.387Z,5.90
2022-11-03T13:01:56.638Z,7.90